Time;durP1;ratioP1;P1;durP2;ratioP2;P2;SDS_P1;SDS_P2;PMS_P1;PMS_P2;Temp;Humidity;BMP_temperature;BMP_pressure;BME280_temperature;BME280_humidity;BME280_pressure;Samples;Min_cycle;Max_cycle;Signal;HPM_P1;HPM_P2
2021/09/26 00:00:29;;;;;;;9.20;4.70;;;;;;;18.04;58.98;100949.90;117291;1185;21864;-60
2021/09/26 00:02:57;;;;;;;8.40;4.50;;;;;;;18.05;58.98;100945.77;117401;1185;21855;-60
2021/09/26 00:05:25;;;;;;;7.10;4.10;;;;;;;18.09;58.98;100941.35;117135;1186;22718;-61
2021/09/26 00:07:54;;;;;;;7.30;4.60;;;;;;;18.13;58.99;100943.16;117323;1186;21917;-60
2021/09/26 00:10:22;;;;;;;10.20;4.80;;;;;;;18.11;59.01;100942.52;117093;1189;21861;-60
2021/09/26 00:12:50;;;;;;;7.90;4.70;;;;;;;18.09;59.11;100945.23;117308;1189;21864;-60
2021/09/26 00:15:20;;;;;;;9.10;4.10;;;;;;;18.08;59.19;100948.15;117265;1185;21856;-60
2021/09/26 00:17:49;;;;;;;6.40;4.00;;;;;;;18.09;59.16;100947.02;117306;1185;21861;-60
2021/09/26 00:20:17;;;;;;;6.50;3.30;;;;;;;18.12;59.22;100945.67;117446;1185;21888;-60
2021/09/26 00:22:45;;;;;;;6.50;4.00;;;;;;;18.13;59.21;100940.33;117380;1189;21868;-60
2021/09/26 00:25:14;;;;;;;9.50;4.30;;;;;;;18.13;59.35;100938.18;117303;1186;21845;-60
2021/09/26 00:27:42;;;;;;;7.80;3.90;;;;;;;18.15;59.20;100935.65;117327;1185;21900;-60
2021/09/26 00:30:13;;;;;;;7.50;4.20;;;;;;;18.16;59.34;100938.08;117349;1186;21864;-60
2021/09/26 00:32:43;;;;;;;8.70;4.50;;;;;;;18.21;59.39;100937.20;117330;1189;21862;-60
2021/09/26 00:35:11;;;;;;;8.90;3.80;;;;;;;18.25;59.23;100935.47;117422;1185;23912;-60
2021/09/26 00:37:40;;;;;;;8.10;3.90;;;;;;;18.29;59.29;100933.58;117332;1185;23550;-60
2021/09/26 00:40:08;;;;;;;6.40;3.90;;;;;;;18.32;59.18;100933.83;117298;1185;21853;-60
2021/09/26 00:42:36;;;;;;;7.70;3.60;;;;;;;18.33;59.26;100936.77;117279;1185;21865;-60
2021/09/26 00:45:05;;;;;;;6.90;3.60;;;;;;;18.35;59.17;100939.93;117267;1185;21845;-60
2021/09/26 00:47:34;;;;;;;6.00;3.90;;;;;;;18.38;59.14;100937.85;117347;1186;21857;-60
2021/09/26 00:50:03;;;;;;;8.10;3.80;;;;;;;18.37;59.17;100936.85;117320;1185;21863;-60
2021/09/26 00:52:31;;;;;;;7.10;4.20;;;;;;;18.36;59.16;100936.34;117404;1185;23516;-60
2021/09/26 00:54:59;;;;;;;8.00;3.90;;;;;;;18.37;59.11;100934.13;117247;1185;21855;-60
2021/09/26 00:57:27;;;;;;;9.00;4.30;;;;;;;18.33;59.10;100931.27;117369;1185;23833;-59
2021/09/26 00:59:58;;;;;;;6.60;3.90;;;;;;;18.29;59.32;100932.49;117076;1189;21891;-59
2021/09/26 01:02:26;;;;;;;8.50;3.80;;;;;;;18.25;59.24;100933.86;117311;1185;23471;-60
2021/09/26 01:04:54;;;;;;;8.10;3.60;;;;;;;18.23;59.31;100930.22;117264;1185;23472;-60
2021/09/26 01:08:10;;;;;;;7.60;4.20;;;;;;;18.20;59.36;100935.30;117251;1185;21863;-60
2021/09/26 01:11:05;;;;;;;7.00;4.20;;;;;;;18.19;59.41;100932.84;116977;1192;21861;-60
2021/09/26 01:13:52;;;;;;;6.90;3.80;;;;;;;18.17;59.49;100935.40;116768;1189;21908;-60
2021/09/26 01:16:31;;;;;;;8.40;3.80;;;;;;;18.15;59.43;100933.86;117149;1189;21865;-57
2021/09/26 01:19:17;;;;;;;5.90;3.60;;;;;;;18.18;59.38;100936.97;117316;1186;22470;-56
2021/09/26 01:21:54;;;;;;;6.40;4.00;;;;;;;18.20;59.49;100936.17;117339;1185;21899;-56
2021/09/26 01:24:50;;;;;;;7.50;4.20;;;;;;;18.21;59.52;100934.90;117325;1186;23461;-57
2021/09/26 01:27:24;;;;;;;7.50;4.30;;;;;;;18.24;59.38;100933.74;117309;1185;23557;-57
2021/09/26 01:30:11;;;;;;;8.70;4.50;;;;;;;18.27;59.35;100933.79;117332;1185;22917;-56
2021/09/26 01:32:39;;;;;;;10.00;4.20;;;;;;;18.29;59.41;100933.73;117286;1186;23531;-57
2021/09/26 01:35:09;;;;;;;9.40;3.90;;;;;;;18.31;59.32;100934.56;117297;1186;21856;-56
2021/09/26 01:37:41;;;;;;;8.70;4.60;;;;;;;18.34;59.27;100934.10;117310;1186;22628;-56
2021/09/26 01:40:18;;;;;;;9.70;4.10;;;;;;;18.34;59.43;100936.92;117344;1186;21897;-56
2021/09/26 01:42:52;;;;;;;7.50;3.80;;;;;;;18.38;59.37;100935.89;117295;1186;21868;-56
2021/09/26 01:45:57;;;;;;;5.90;3.70;;;;;;;18.35;59.44;100935.84;117368;1187;22927;-56
2021/09/26 01:48:39;;;;;;;7.20;3.60;;;;;;;18.36;59.38;100936.13;116782;1189;22198;-56
2021/09/26 01:51:07;;;;;;;8.30;3.80;;;;;;;18.41;59.31;100937.03;117295;1186;21845;-57
2021/09/26 01:53:37;;;;;;;7.30;3.80;;;;;;;18.41;59.44;100937.39;117327;1186;21859;-56
2021/09/26 01:56:05;;;;;;;6.50;3.80;;;;;;;18.43;59.35;100933.23;117339;1185;21920;-56
2021/09/26 01:58:33;;;;;;;7.60;4.10;;;;;;;18.45;59.37;100937.98;117290;1186;21867;-57
2021/09/26 02:01:01;;;;;;;6.00;3.30;;;;;;;18.47;59.40;100936.65;116941;1188;21868;-57
2021/09/26 02:03:29;;;;;;;6.40;3.30;;;;;;;18.49;59.40;100934.28;117290;1186;23564;-57
2021/09/26 02:05:57;;;;;;;7.50;3.60;;;;;;;18.50;59.41;100936.36;117299;1185;23466;-56
2021/09/26 02:08:26;;;;;;;7.30;3.40;;;;;;;18.48;59.40;100939.80;117254;1186;23566;-56
2021/09/26 02:10:55;;;;;;;8.00;3.90;;;;;;;18.48;59.43;100936.08;117410;1186;22333;-57
2021/09/26 02:13:23;;;;;;;5.70;3.40;;;;;;;18.49;59.39;100937.48;117316;1186;21879;-56
2021/09/26 02:15:51;;;;;;;5.60;3.20;;;;;;;18.49;59.36;100937.65;117348;1186;23566;-56
2021/09/26 02:18:20;;;;;;;7.00;3.70;;;;;;;18.54;59.33;100934.98;117345;1183;23545;-57
2021/09/26 02:20:48;;;;;;;5.40;3.20;;;;;;;18.51;59.38;100936.66;117251;1186;21857;-56
2021/09/26 02:23:17;;;;;;;5.80;3.20;;;;;;;18.51;59.39;100934.20;117051;1185;21899;-57
2021/09/26 02:25:45;;;;;;;9.60;4.10;;;;;;;18.49;59.39;100931.43;117059;1185;21859;-56
2021/09/26 02:28:14;;;;;;;7.90;3.50;;;;;;;18.51;59.40;100935.25;117156;1185;23544;-56
2021/09/26 02:30:42;;;;;;;6.40;3.20;;;;;;;18.42;59.46;100939.27;117014;1186;21855;-56
2021/09/26 02:33:10;;;;;;;7.50;3.90;;;;;;;18.40;59.60;100937.59;117310;1185;23573;-56
2021/09/26 02:35:38;;;;;;;10.20;4.10;;;;;;;18.40;59.54;100938.11;117292;1185;22284;-57
2021/09/26 02:38:06;;;;;;;8.70;3.60;;;;;;;18.42;59.58;100936.08;117224;1185;21856;-57
2021/09/26 02:40:34;;;;;;;6.60;3.60;;;;;;;18.44;59.52;100938.37;117334;1183;23579;-57
2021/09/26 02:43:28;;;;;;;7.10;3.40;;;;;;;18.36;59.62;100938.10;117260;1186;22529;-57
2021/09/26 02:46:05;;;;;;;6.90;3.20;;;;;;;18.34;59.66;100942.26;117195;1186;23553;-56
2021/09/26 02:48:33;;;;;;;7.90;3.50;;;;;;;18.33;59.69;100939.63;117265;1186;21820;-56
2021/09/26 02:51:01;;;;;;;6.70;3.40;;;;;;;18.28;59.67;100939.25;117234;1189;21853;-56
2021/09/26 02:53:30;;;;;;;6.90;3.70;;;;;;;18.29;59.57;100942.60;117291;1186;22922;-56
2021/09/26 02:55:59;;;;;;;6.00;3.20;;;;;;;18.27;59.66;100940.76;117101;1187;21860;-57
2021/09/26 02:58:27;;;;;;;7.30;3.90;;;;;;;18.25;59.67;100941.52;117296;1186;21866;-56
2021/09/26 03:00:55;;;;;;;6.30;3.30;;;;;;;18.24;59.74;100944.19;117282;1188;21867;-56
2021/09/26 03:03:25;;;;;;;8.10;3.70;;;;;;;18.24;59.70;100944.20;117370;1186;22770;-57
2021/09/26 03:05:54;;;;;;;8.00;4.70;;;;;;;18.23;59.62;100941.91;117276;1186;24168;-57
2021/09/26 03:08:22;;;;;;;8.40;3.20;;;;;;;18.21;59.70;100943.97;117436;1185;23584;-56
2021/09/26 03:10:58;;;;;;;9.40;3.70;;;;;;;18.20;59.72;100945.80;117329;1185;23460;-56
2021/09/26 03:13:28;;;;;;;8.30;3.70;;;;;;;18.18;59.62;100947.80;117272;1185;23544;-56
2021/09/26 03:15:56;;;;;;;7.80;3.80;;;;;;;18.17;59.75;100952.27;117297;1185;21904;-56
2021/09/26 03:18:24;;;;;;;5.50;3.30;;;;;;;18.19;59.67;100952.57;117388;1189;21866;-57
2021/09/26 03:20:53;;;;;;;8.20;3.90;;;;;;;18.19;59.67;100953.27;117273;1185;23543;-56
2021/09/26 03:23:21;;;;;;;7.50;3.60;;;;;;;18.18;59.62;100951.00;117297;1183;23533;-56
2021/09/26 03:25:49;;;;;;;7.60;3.50;;;;;;;18.15;59.67;100954.30;117312;1185;21886;-56
2021/09/26 03:28:17;;;;;;;5.70;3.40;;;;;;;18.13;59.72;100951.67;117338;1185;21982;-56
2021/09/26 03:30:45;;;;;;;6.80;3.90;;;;;;;18.11;59.76;100949.28;117232;1185;21859;-56
2021/09/26 03:33:13;;;;;;;7.10;3.90;;;;;;;18.10;59.80;100955.55;117276;1185;21859;-56
2021/09/26 03:35:41;;;;;;;6.80;3.70;;;;;;;18.09;59.83;100953.25;117300;1185;21858;-56
2021/09/26 03:38:09;;;;;;;8.20;3.70;;;;;;;18.08;59.80;100951.52;117388;1185;23557;-56
2021/09/26 03:40:37;;;;;;;7.20;3.60;;;;;;;18.07;59.81;100954.55;117314;1185;23612;-56
2021/09/26 03:43:06;;;;;;;6.20;3.70;;;;;;;18.04;59.84;100952.70;117263;1188;21857;-57
2021/09/26 03:45:34;;;;;;;7.40;3.90;;;;;;;18.04;59.79;100954.65;117362;1185;21899;-56
2021/09/26 03:48:02;;;;;;;7.50;4.30;;;;;;;18.04;59.71;100953.27;117393;1185;21901;-59
2021/09/26 03:50:31;;;;;;;11.00;4.70;;;;;;;18.02;59.82;100956.86;117319;1185;22260;-59
2021/09/26 03:52:59;;;;;;;8.30;4.10;;;;;;;18.03;59.79;100954.01;117295;1185;21899;-60
2021/09/26 03:55:27;;;;;;;7.60;4.50;;;;;;;18.03;59.82;100953.27;117260;1186;21867;-60
2021/09/26 03:57:55;;;;;;;7.20;4.10;;;;;;;18.03;59.79;100954.19;117318;1186;24207;-60
2021/09/26 04:00:23;;;;;;;5.80;3.60;;;;;;;18.03;59.80;100956.11;117315;1185;21854;-57
2021/09/26 04:02:51;;;;;;;11.60;3.80;;;;;;;18.04;59.74;100956.98;117273;1185;21845;-60
2021/09/26 04:05:19;;;;;;;14.40;3.90;;;;;;;18.04;59.66;100957.16;117317;1186;21921;-60
2021/09/26 04:07:48;;;;;;;8.10;3.90;;;;;;;18.07;59.74;100961.49;117342;1183;23541;-60
2021/09/26 04:10:16;;;;;;;7.10;4.00;;;;;;;18.07;59.64;100970.38;117315;1186;21855;-60
2021/09/26 04:12:45;;;;;;;7.80;3.60;;;;;;;18.09;59.66;100970.46;117332;1182;22930;-60
2021/09/26 04:15:13;;;;;;;6.30;3.70;;;;;;;18.11;59.65;100970.05;117307;1186;21917;-59
2021/09/26 04:17:41;;;;;;;11.00;4.70;;;;;;;18.12;59.66;100969.46;117390;1182;23576;-60
2021/09/26 04:20:10;;;;;;;11.50;4.60;;;;;;;18.13;59.71;100968.37;117331;1189;21893;-58
2021/09/26 04:22:38;;;;;;;8.50;4.40;;;;;;;18.13;59.84;100967.67;117353;1186;22774;-58
2021/09/26 04:25:07;;;;;;;6.20;3.70;;;;;;;18.16;59.70;100968.30;117330;1185;23066;-60
2021/09/26 04:27:35;;;;;;;6.60;3.40;;;;;;;18.16;59.80;100964.37;117369;1185;22640;-62
2021/09/26 04:30:05;;;;;;;7.10;4.40;;;;;;;18.17;59.84;100964.52;117334;1185;23541;-62
2021/09/26 04:32:33;;;;;;;8.80;4.30;;;;;;;18.18;59.88;100966.09;117313;1186;21858;-62
2021/09/26 04:35:02;;;;;;;10.20;4.10;;;;;;;18.20;59.82;100966.36;117329;1185;21867;-60
2021/09/26 04:37:30;;;;;;;7.80;4.30;;;;;;;18.20;59.87;100973.11;117355;1185;21846;-59
2021/09/26 04:39:58;;;;;;;10.70;6.20;;;;;;;18.21;59.93;100975.40;117311;1188;21858;-59
2021/09/26 04:42:26;;;;;;;7.90;4.80;;;;;;;18.24;59.91;100969.94;117391;1185;23523;-60
2021/09/26 04:44:54;;;;;;;7.00;3.60;;;;;;;18.27;59.94;100970.03;117269;1189;21888;-60
2021/09/26 04:47:23;;;;;;;6.40;3.70;;;;;;;18.30;59.91;100969.23;117292;1186;23904;-59
2021/09/26 04:49:53;;;;;;;;;;;;;;;18.31;60.01;100965.46;117223;1186;21842;-60
2021/09/26 04:52:21;;;;;;;7.00;3.90;;;;;;;18.33;59.97;100966.46;117171;1185;21848;-60
2021/09/26 04:54:49;;;;;;;9.00;3.80;;;;;;;18.35;59.96;100967.64;117237;1188;21867;-60
2021/09/26 04:57:17;;;;;;;8.20;4.00;;;;;;;18.37;59.95;100972.52;117291;1185;21923;-59
2021/09/26 04:59:45;;;;;;;8.10;3.80;;;;;;;18.37;60.11;100975.19;117239;1189;21870;-60
2021/09/26 05:02:13;;;;;;;5.80;3.20;;;;;;;18.36;60.11;100973.98;117387;1183;23568;-59
2021/09/26 05:04:42;;;;;;;5.30;3.40;;;;;;;18.35;60.12;100975.61;117307;1181;22810;-59
2021/09/26 05:07:10;;;;;;;5.70;3.70;;;;;;;18.36;60.22;100976.46;117313;1186;21842;-60
2021/09/26 05:09:38;;;;;;;7.40;3.90;;;;;;;18.40;60.15;100975.79;117317;1186;21855;-60
2021/09/26 05:12:07;;;;;;;5.90;3.20;;;;;;;18.43;60.13;100976.94;117289;1182;23471;-60
2021/09/26 05:14:35;;;;;;;9.30;3.60;;;;;;;18.43;60.09;100977.84;117320;1180;24162;-60
2021/09/26 05:17:06;;;;;;;7.80;3.50;;;;;;;18.40;60.25;100980.77;117314;1185;21857;-59
2021/09/26 05:19:38;;;;;;;5.80;3.80;;;;;;;18.46;60.10;100979.14;117238;1183;23570;-60
2021/09/26 05:22:07;;;;;;;6.60;3.60;;;;;;;18.53;60.01;100978.20;117367;1186;23939;-60
2021/09/26 05:24:35;;;;;;;8.30;3.80;;;;;;;18.56;60.00;100977.71;117315;1186;24178;-60
2021/09/26 05:27:03;;;;;;;6.60;3.70;;;;;;;18.51;60.09;100980.20;117366;1185;23554;-60
2021/09/26 05:29:32;;;;;;;6.40;4.10;;;;;;;18.50;60.24;100982.40;117363;1183;23566;-60
2021/09/26 05:32:00;;;;;;;5.90;3.60;;;;;;;18.59;60.04;100979.91;117308;1185;22809;-60
2021/09/26 05:34:29;;;;;;;5.40;3.50;;;;;;;18.70;59.92;100986.82;117387;1182;22562;-60
2021/09/26 05:36:58;;;;;;;6.70;3.30;;;;;;;18.73;59.92;100987.97;117352;1185;21898;-60
2021/09/26 05:39:26;;;;;;;7.50;3.60;;;;;;;18.77;59.87;100986.04;117316;1186;21877;-60
2021/09/26 05:41:55;;;;;;;6.90;3.50;;;;;;;18.80;59.90;100983.59;117276;1182;21855;-61
2021/09/26 05:44:23;;;;;;;6.50;3.60;;;;;;;18.82;59.87;100986.19;117368;1182;23201;-60
2021/09/26 05:46:51;;;;;;;7.10;4.10;;;;;;;18.85;59.84;100984.48;117392;1186;23563;-60
2021/09/26 05:49:19;;;;;;;6.20;3.60;;;;;;;18.84;60.05;100983.62;117311;1182;22628;-60
2021/09/26 05:51:47;;;;;;;7.80;4.30;;;;;;;18.88;60.03;100986.86;117262;1185;21867;-61
2021/09/26 05:54:16;;;;;;;7.60;3.70;;;;;;;18.89;60.04;100988.61;117278;1185;23541;-61
2021/09/26 05:56:44;;;;;;;7.50;4.10;;;;;;;18.92;60.19;100995.63;117343;1176;23442;-61
2021/09/26 05:59:12;;;;;;;6.80;3.60;;;;;;;18.96;60.18;100999.59;117364;1185;21873;-61
2021/09/26 06:01:41;;;;;;;5.40;3.40;;;;;;;19.00;60.23;100999.58;117338;1186;21868;-60
2021/09/26 06:04:09;;;;;;;8.70;3.40;;;;;;;19.06;60.31;101001.71;117302;1185;21874;-60
2021/09/26 06:06:37;;;;;;;9.10;3.90;;;;;;;19.12;60.31;101000.23;117265;1185;21855;-60
2021/09/26 06:09:05;;;;;;;5.30;3.80;;;;;;;19.16;60.26;101002.91;117173;1182;22641;-61
2021/09/26 06:11:33;;;;;;;9.30;4.60;;;;;;;19.23;60.20;101001.23;117095;1183;21869;-60
2021/09/26 06:14:02;;;;;;;7.50;4.10;;;;;;;19.30;60.13;101002.55;117081;1185;21886;-61
2021/09/26 06:16:30;;;;;;;8.50;4.40;;;;;;;19.37;60.13;101000.34;117145;1185;21859;-60
2021/09/26 06:18:58;;;;;;;6.10;3.70;;;;;;;19.43;60.11;101005.08;117410;1176;21848;-60
2021/09/26 06:21:26;;;;;;;7.90;4.80;;;;;;;19.48;60.10;101003.98;117120;1183;22654;-60
2021/09/26 06:23:54;;;;;;;14.60;7.50;;;;;;;19.54;60.20;101011.97;117272;1182;23586;-60
2021/09/26 06:26:25;;;;;;;14.90;9.20;;;;;;;19.63;60.13;101012.64;117071;1183;23153;-60
2021/09/26 06:28:53;;;;;;;33.80;22.70;;;;;;;19.70;60.10;101014.33;117289;1182;22655;-60
2021/09/26 06:31:21;;;;;;;43.40;26.20;;;;;;;19.75;60.20;101017.90;117239;1185;22721;-60
2021/09/26 06:33:49;;;;;;;47.30;28.90;;;;;;;19.82;60.15;101017.98;117370;1183;23620;-60
2021/09/26 06:36:17;;;;;;;37.40;23.50;;;;;;;19.89;60.18;101019.48;117267;1186;21905;-60
2021/09/26 06:38:46;;;;;;;28.40;16.80;;;;;;;19.97;60.15;101019.17;117185;1182;21858;-60
2021/09/26 06:41:15;;;;;;;20.10;11.30;;;;;;;20.03;60.13;101019.95;117247;1182;22514;-60
2021/09/26 06:43:43;;;;;;;20.30;11.40;;;;;;;20.07;60.18;101020.85;117102;1182;22902;-61
2021/09/26 06:46:11;;;;;;;14.00;8.00;;;;;;;20.13;60.14;101022.94;117213;1182;24161;-60
2021/09/26 06:48:40;;;;;;;17.10;7.70;;;;;;;20.14;60.17;101028.05;117289;1182;21901;-61
2021/09/26 06:51:08;;;;;;;11.00;6.00;;;;;;;20.17;60.26;101032.92;117153;1182;22740;-61
2021/09/26 06:53:36;;;;;;;11.90;5.70;;;;;;;20.24;60.21;101036.21;117126;1183;23574;-61
2021/09/26 06:56:05;;;;;;;15.40;6.10;;;;;;;20.30;60.24;101036.14;117124;1185;23472;-62
2021/09/26 06:58:33;;;;;;;12.40;7.10;;;;;;;20.39;60.20;101037.91;117196;1185;22877;-61
2021/09/26 07:01:01;;;;;;;17.90;7.70;;;;;;;20.42;60.24;101036.50;117332;1182;23466;-61
2021/09/26 07:03:30;;;;;;;11.60;7.10;;;;;;;20.50;60.28;101037.77;117319;1186;23551;-62
2021/09/26 07:05:58;;;;;;;8.30;5.50;;;;;;;20.58;60.28;101039.73;117285;1186;21852;-61
2021/09/26 07:08:27;;;;;;;6.30;3.90;;;;;;;20.63;60.34;101036.48;117314;1183;23544;-62
2021/09/26 07:10:55;;;;;;;7.10;4.20;;;;;;;20.70;60.38;101033.33;117349;1182;22911;-62
2021/09/26 07:13:24;;;;;;;6.50;4.10;;;;;;;20.78;60.30;101037.48;117325;1186;23544;-62
2021/09/26 07:15:52;;;;;;;7.50;3.40;;;;;;;20.82;60.18;101034.99;117353;1182;22715;-61
2021/09/26 07:18:20;;;;;;;7.80;4.10;;;;;;;20.84;60.24;101033.45;117338;1182;21857;-62
2021/09/26 07:20:48;;;;;;;8.10;3.80;;;;;;;20.86;60.27;101037.84;117318;1182;21864;-61
2021/09/26 07:23:16;;;;;;;10.80;4.10;;;;;;;20.89;60.15;101037.90;117321;1185;21867;-61
2021/09/26 07:25:44;;;;;;;8.40;3.90;;;;;;;20.92;60.20;101039.87;117250;1183;23544;-62
2021/09/26 07:28:12;;;;;;;6.90;4.20;;;;;;;20.98;60.20;101041.77;117322;1185;21844;-62
2021/09/26 07:30:40;;;;;;;6.10;3.80;;;;;;;21.03;60.19;101045.47;117256;1187;21848;-61
2021/09/26 07:33:08;;;;;;;9.00;4.50;;;;;;;21.06;60.15;101049.27;117306;1185;21850;-61
2021/09/26 07:35:37;;;;;;;7.50;3.90;;;;;;;21.09;60.00;101051.97;117316;1185;23566;-61
2021/09/26 07:38:05;;;;;;;10.20;4.10;;;;;;;21.10;59.97;101053.33;117326;1182;21856;-61
2021/09/26 07:40:33;;;;;;;11.80;6.10;;;;;;;21.09;59.92;101058.55;117146;1183;23525;-62
2021/09/26 07:43:03;;;;;;;11.30;5.80;;;;;;;21.14;59.79;101060.85;117296;1186;23695;-61
2021/09/26 07:45:50;;;;;;;6.50;4.50;;;;;;;21.12;59.76;101063.78;117277;1183;22922;-61
2021/09/26 07:48:19;;;;;;;7.50;4.50;;;;;;;21.13;59.87;101064.64;117161;1185;21857;-61
2021/09/26 07:50:49;;;;;;;7.90;4.00;;;;;;;21.16;59.87;101068.44;117296;1182;21857;-60
2021/09/26 07:53:18;;;;;;;;;;;;;;;21.18;59.92;101066.93;117292;1182;21838;-61
2021/09/26 07:55:49;;;;;;;7.50;4.10;;;;;;;21.18;59.94;101064.23;117263;1183;24160;-61
2021/09/26 07:58:17;;;;;;;7.10;4.30;;;;;;;21.15;60.05;101065.10;117328;1182;23747;-62
2021/09/26 08:00:46;;;;;;;7.30;4.00;;;;;;;21.21;60.11;101067.27;117268;1182;23512;-62
2021/09/26 08:03:14;;;;;;;6.20;3.50;;;;;;;21.31;60.26;101065.05;117225;1185;21843;-60
2021/09/26 08:05:44;;;;;;;7.50;3.90;;;;;;;21.43;60.13;101068.63;117161;1182;22936;-61
2021/09/26 08:08:12;;;;;;;7.10;4.00;;;;;;;21.50;60.24;101065.60;117002;1186;21870;-60
2021/09/26 08:10:40;;;;;;;8.60;4.10;;;;;;;21.57;60.27;101064.19;117242;1186;23566;-60
2021/09/26 08:13:14;;;;;;;7.80;4.10;;;;;;;21.65;60.15;101060.48;117164;1182;23540;-60
2021/09/26 08:15:42;;;;;;;6.20;4.00;;;;;;;21.74;60.18;101056.13;117185;1185;21896;-60
2021/09/26 08:18:11;;;;;;;9.40;4.10;;;;;;;21.81;60.13;101052.73;117214;1185;22851;-60
2021/09/26 08:20:39;;;;;;;9.70;5.60;;;;;;;21.86;60.24;101056.23;117300;1186;23542;-60
2021/09/26 08:23:08;;;;;;;5.70;4.10;;;;;;;21.94;60.33;101053.71;117310;1188;21856;-62
2021/09/26 08:25:36;;;;;;;6.20;4.60;;;;;;;22.06;60.21;101053.27;117317;1186;23544;-60
2021/09/26 08:28:04;;;;;;;6.30;4.40;;;;;;;22.17;60.23;101049.90;117340;1183;23618;-60
2021/09/26 08:30:32;;;;;;;11.10;4.80;;;;;;;22.25;60.06;101046.13;117344;1185;21930;-62
2021/09/26 08:33:01;;;;;;;8.00;4.50;;;;;;;22.33;60.19;101049.46;117300;1182;21844;-61
2021/09/26 08:35:30;;;;;;;7.80;4.70;;;;;;;22.38;60.19;101050.61;117252;1181;24166;-61
2021/09/26 08:37:58;;;;;;;8.40;4.20;;;;;;;22.46;60.05;101048.64;117275;1185;22635;-63
2021/09/26 08:40:26;;;;;;;8.40;4.10;;;;;;;22.52;60.12;101048.14;117162;1182;23478;-62
2021/09/26 08:42:55;;;;;;;8.60;4.10;;;;;;;22.61;60.34;101046.30;117281;1183;23623;-64
2021/09/26 08:45:23;;;;;;;11.10;4.20;;;;;;;22.67;60.14;101047.58;117270;1186;21889;-63
2021/09/26 08:47:51;;;;;;;10.10;5.50;;;;;;;22.71;60.28;101043.92;117205;1185;24119;-63
2021/09/26 08:50:23;;;;;;;11.70;4.70;;;;;;;22.77;60.34;101039.31;117065;1182;23570;-62
2021/09/26 08:52:52;;;;;;;8.70;4.60;;;;;;;22.87;60.30;101039.16;117269;1182;21874;-62
2021/09/26 08:55:20;;;;;;;7.60;4.90;;;;;;;22.98;60.24;101032.65;117200;1183;22796;-61
2021/09/26 08:57:48;;;;;;;7.70;4.50;;;;;;;23.07;60.16;101031.14;117283;1187;21857;-64
2021/09/26 09:00:17;;;;;;;10.70;4.50;;;;;;;23.09;60.26;101033.16;117313;1185;21855;-64
2021/09/26 09:02:46;;;;;;;7.80;5.00;;;;;;;23.17;60.08;101032.36;117260;1180;23149;-65
2021/09/26 09:05:32;;;;;;;7.80;4.70;;;;;;;23.26;60.11;101035.52;117256;1183;21910;-63
2021/09/26 09:08:10;;;;;;;6.90;5.00;;;;;;;23.36;60.14;101034.96;117279;1185;21916;-63
2021/09/26 09:10:50;;;;;;;7.30;4.80;;;;;;;23.44;60.17;101029.64;117273;1183;21862;-62
2021/09/26 09:13:32;;;;;;;9.10;5.40;;;;;;;23.49;60.10;101028.83;117296;1185;21857;-61
2021/09/26 09:16:07;;;;;;;7.80;4.80;;;;;;;23.50;60.29;101028.58;117188;1185;22150;-62
2021/09/26 09:18:44;;;;;;;9.20;4.80;;;;;;;23.55;60.20;101024.23;117416;1183;22623;-64
2021/09/26 09:21:17;;;;;;;11.70;5.00;;;;;;;23.65;60.43;101024.17;117296;1185;21855;-64
2021/09/26 09:23:45;;;;;;;6.60;5.20;;;;;;;23.77;60.40;101024.56;117310;1186;21848;-62
2021/09/26 09:26:13;;;;;;;7.10;4.40;;;;;;;23.96;60.32;101020.31;117314;1182;23698;-62
2021/09/26 09:28:41;;;;;;;6.00;4.30;;;;;;;24.06;60.50;101018.98;117288;1186;21876;-62
2021/09/26 09:31:09;;;;;;;8.10;4.90;;;;;;;24.18;60.40;101017.73;117384;1185;21889;-60
2021/09/26 09:33:39;;;;;;;8.10;4.90;;;;;;;24.29;60.37;101023.17;117363;1182;23646;-61
2021/09/26 09:36:27;;;;;;;7.00;4.80;;;;;;;24.34;60.17;101020.02;117355;1186;21874;-60
2021/09/26 09:39:02;;;;;;;8.60;5.30;;;;;;;24.39;60.31;101020.47;117302;1186;23465;-60
2021/09/26 09:41:40;;;;;;;7.40;4.90;;;;;;;24.47;60.21;101019.08;117290;1182;21858;-60
2021/09/26 09:44:10;;;;;;;6.40;4.90;;;;;;;24.54;60.16;101014.15;117311;1185;23667;-60
2021/09/26 09:46:43;;;;;;;7.00;4.70;;;;;;;24.60;60.22;101013.60;117377;1183;23554;-60
2021/09/26 09:49:15;;;;;;;7.20;4.70;;;;;;;24.59;60.22;101013.70;117220;1182;23545;-60
2021/09/26 09:52:00;;;;;;;6.00;4.50;;;;;;;24.67;60.23;101015.40;117254;1185;21867;-60
2021/09/26 09:54:41;;;;;;;5.60;4.40;;;;;;;24.78;60.22;101014.52;117350;1182;23465;-62
2021/09/26 09:57:14;;;;;;;6.80;4.70;;;;;;;24.94;60.15;101019.47;117343;1182;21854;-62
2021/09/26 09:59:44;;;;;;;11.50;4.60;;;;;;;25.06;60.20;101018.02;117329;1186;22785;-62
2021/09/26 10:02:14;;;;;;;6.00;3.80;;;;;;;25.15;60.17;101014.80;117172;1183;23891;-61
2021/09/26 10:04:46;;;;;;;6.30;4.20;;;;;;;25.22;60.20;101016.98;117383;1183;21932;-60
2021/09/26 10:07:19;;;;;;;6.20;4.50;;;;;;;25.30;60.21;101015.04;117335;1185;21857;-60
2021/09/26 10:09:48;;;;;;;9.90;4.30;;;;;;;25.36;60.16;101013.06;117358;1182;21856;-60
2021/09/26 10:12:24;;;;;;;5.70;4.30;;;;;;;25.40;60.01;101012.62;117383;1185;22918;-60
2021/09/26 10:14:57;;;;;;;5.50;4.10;;;;;;;25.50;59.96;101008.02;117379;1183;21856;-61
2021/09/26 10:17:25;;;;;;;7.80;4.50;;;;;;;25.57;59.89;101007.80;117366;1185;21858;-60
2021/09/26 10:19:53;;;;;;;8.70;4.40;;;;;;;25.64;59.74;101011.11;117357;1187;22897;-60
2021/09/26 10:22:21;;;;;;;8.60;4.10;;;;;;;25.61;59.74;101008.96;117256;1185;21856;-60
2021/09/26 10:24:51;;;;;;;6.60;4.40;;;;;;;25.56;59.90;101003.34;117181;1185;21912;-60
2021/09/26 10:27:21;;;;;;;5.40;4.10;;;;;;;25.58;59.85;101001.42;117282;1185;21857;-64
2021/09/26 10:30:11;;;;;;;6.00;3.60;;;;;;;25.65;59.94;101002.77;117350;1186;21860;-63
2021/09/26 10:32:39;;;;;;;4.10;3.20;;;;;;;25.75;59.99;101004.45;117392;1185;21867;-61
2021/09/26 10:35:08;;;;;;;5.50;3.70;;;;;;;25.85;60.05;101002.30;117283;1182;22902;-61
2021/09/26 10:37:36;;;;;;;6.80;3.70;;;;;;;25.90;59.95;100991.37;117355;1185;21860;-60
2021/09/26 10:40:05;;;;;;;4.80;3.70;;;;;;;25.92;59.83;100993.09;117255;1186;23447;-60
2021/09/26 10:42:37;;;;;;;9.70;3.80;;;;;;;25.97;59.88;100990.94;117305;1183;21860;-63
2021/09/26 10:45:09;;;;;;;5.90;3.30;;;;;;;26.07;59.99;100983.94;117312;1186;23516;-63
2021/09/26 10:47:38;;;;;;;4.60;3.10;;;;;;;26.17;60.13;100982.28;117394;1184;22629;-63
2021/09/26 10:50:17;;;;;;;4.90;2.90;;;;;;;26.27;60.10;100983.36;117302;1185;23476;-60
2021/09/26 10:52:47;;;;;;;6.80;3.00;;;;;;;26.29;59.86;100982.50;117308;1185;21869;-60
2021/09/26 10:55:15;;;;;;;4.60;3.00;;;;;;;26.28;59.79;100976.98;117354;1182;23554;-60
2021/09/26 10:57:47;;;;;;;4.90;3.10;;;;;;;26.35;59.95;100975.06;117301;1185;21870;-60
2021/09/26 11:00:27;;;;;;;8.00;2.90;;;;;;;26.48;59.92;100976.16;117211;1185;21846;-64
2021/09/26 11:03:04;;;;;;;7.20;3.10;;;;;;;26.58;59.93;100972.77;117251;1182;23582;-61
2021/09/26 11:05:36;;;;;;;12.50;2.80;;;;;;;26.61;59.78;100971.65;117304;1185;21877;-62
2021/09/26 11:08:09;;;;;;;7.30;3.00;;;;;;;26.65;59.75;100968.45;117186;1184;22617;-62
2021/09/26 11:10:38;;;;;;;8.60;2.70;;;;;;;26.73;59.81;100967.73;117344;1185;21877;-62
2021/09/26 11:13:07;;;;;;;3.80;2.70;;;;;;;26.77;59.72;100965.28;117258;1182;23441;-60
2021/09/26 11:15:56;;;;;;;5.70;3.20;;;;;;;26.74;59.64;100965.83;117197;1185;21870;-59
2021/09/26 11:18:43;;;;;;;4.50;3.00;;;;;;;26.73;59.54;100964.69;117284;1183;21854;-60
2021/09/26 11:21:39;;;;;;;8.10;3.00;;;;;;;26.64;59.62;100959.39;117167;1186;21858;-60
2021/09/26 11:24:12;;;;;;;5.40;2.90;;;;;;;26.63;59.56;100953.88;117224;1185;21859;-62
2021/09/26 11:27:08;;;;;;;14.40;2.90;;;;;;;26.69;59.65;100954.70;117175;1186;21858;-61
2021/09/26 11:29:41;;;;;;;4.50;2.70;;;;;;;26.76;59.68;100959.98;117277;1185;21858;-62
2021/09/26 11:32:21;;;;;;;6.30;2.70;;;;;;;26.80;59.64;100954.08;117215;1184;22924;-62